Flight Track Log - Related Links

Times and Time Zones

All times are in EDT time to prevent confusion due to time zone crossing. See the AWI3599 flight status page for this flight to view local times or setup timezone preferences in your user account.

Time Position Orientation Groundspeed Altitude Reporting Facility
EDT Latitude Longitude Course Direction KTS MPH feet Rate Location/Type
Thu 08:05:03 AM 39.8833 -75.2167 67° East 161 185 1,000  Level Philadelphia TRACON
Thu 08:05:57 AM 39.9000 -75.1667 67° East 190 219 2,800 2,158 Climbing Philadelphia TRACON
Thu 08:06:57 AM 39.9500 -75.1667 360° North 275 316 5,100 2,485 Climbing Philadelphia TRACON
Thu 08:08:46 AM 39.9603 -75.3397 274° West 314 361 9,800 2,224 Climbing New York Center
Thu 08:09:47 AM 39.9431 -75.4603 259° West 309 356 11,400 1,091 Climbing New York Center
Thu 08:10:47 AM 39.9386 -75.5739 267° West 334 384 12,000 974 Climbing New York Center
Thu 08:11:44 AM 39.9369 -75.7144 269° West 354 407 13,300 1,322 Climbing New York Center
Thu 08:12:45 AM 39.9361 -75.8336 270° West 367 422 14,600 1,525 Climbing New York Center
Thu 08:13:46 AM 39.9358 -75.9825 270° West 367 422 16,400 1,361 Climbing New York Center
Thu 08:14:44 AM 39.9344 -76.1069 269° West 383 441 17,300 857 Climbing New York Center
Thu 08:15:45 AM 39.9364 -76.2478 271° West 390 449 18,100 934 Climbing New York Center
Thu 08:16:46 AM 39.9317 -76.3911 268° West 390 449 19,200 1,091 Climbing New York Center
Thu 08:17:46 AM 39.9306 -76.5425 270° West 402 463 20,300 992 Climbing New York Center
Thu 08:18:47 AM 39.9275 -76.6911 269° West 409 471 21,200 843 Climbing New York Center
Thu 08:19:47 AM 39.9322 -76.8406 272° West 414 476 22,000 915 Climbing New York Center
Thu 08:20:45 AM 39.9369 -76.9928 272° West 419 482 23,000 814 Climbing New York Center
Thu 08:21:45 AM 39.9433 -77.1450 273° West 426 490 23,600 545 Climbing New York Center
Thu 08:22:46 AM 39.9494 -77.3025 273° West 426 490 24,100 492 Climbing New York Center
Thu 08:23:47 AM 39.9567 -77.4686 273° West 431 496 24,600 538 Climbing New York Center
Thu 08:25:11 AM 39.9664 -77.7144 273° West 445 512 25,400 542 Climbing Cleveland Center
Thu 08:26:11 AM 39.9706 -77.8794 272° West 451 519 25,900 500 Climbing Cleveland Center
Thu 08:27:11 AM 39.9764 -78.0417 273° West 456 525 26,400 500 Climbing Cleveland Center
Thu 08:28:11 AM 39.9819 -78.2097 273° West 456 525 26,900 500 Climbing Cleveland Center
Thu 08:29:11 AM 39.9808 -78.3561 269° West 461 531 27,400 600 Climbing Cleveland Center
Thu 08:30:11 AM 39.9839 -78.5158 271° West 456 525 28,100 700 Climbing Cleveland Center
Thu 08:31:11 AM 39.9886 -78.6756 272° West 450 518 28,800 700 Climbing Cleveland Center
Thu 08:32:11 AM 39.9933 -78.8325 272° West 445 512 29,500 700 Climbing Cleveland Center
Thu 08:33:11 AM 39.9978 -78.9897 272° West 439 505 30,200 700 Climbing Cleveland Center
Thu 08:34:11 AM 40.0017 -79.1411 272° West 434 499 30,900 700 Climbing Cleveland Center
Thu 08:35:11 AM 40.0036 -79.2958 271° West 434 499 31,600 700 Climbing Cleveland Center
Thu 08:36:11 AM 40.0053 -79.4447 271° West 429 494 32,300 750 Climbing Cleveland Center
Thu 08:37:11 AM 40.0086 -79.5911 272° West 415 478 33,100 750 Climbing Cleveland Center
Thu 08:38:11 AM 40.0100 -79.7400 271° West 409 471 33,800 450 Climbing Cleveland Center
Thu 08:39:11 AM 40.0128 -79.8839 271° West 404 465 34,000 100 Climbing Cleveland Center
Thu 08:40:11 AM 40.0136 -80.0300 270° West 404 465 34,000  Level Cleveland Center
Thu 08:41:11 AM 40.0144 -80.1792 270° West 404 465 34,000  Level Cleveland Center
Thu 08:42:11 AM 40.0147 -80.3283 270° West 404 465 34,000  Level Cleveland Center
Thu 08:43:11 AM 40.0172 -80.4772 271° West 404 465 34,000  Level Cleveland Center
Thu 08:44:11 AM 40.0172 -80.6264 270° West 404 465 34,000  Level Cleveland Center
Thu 08:45:11 AM 40.0189 -80.7864 271° West 404 465 34,000  Level Cleveland Center
Thu 08:47:38 AM 40.0108 -81.1406 268° West 416 479 34,000  Level Indianapolis Center
Thu 08:48:40 AM 40.0092 -81.2919 269° West 415 478 34,000  Level Indianapolis Center
Thu 08:49:42 AM 40.0067 -81.4433 269° West 415 478 34,000  Level Indianapolis Center
Thu 08:50:43 AM 40.0022 -81.5958 268° West 415 478 34,000  Level Indianapolis Center
Thu 08:51:45 AM 39.9992 -81.7725 269° West 414 476 34,000  Level Indianapolis Center
Thu 08:52:47 AM 39.9961 -81.9164 268° West 414 476 34,000  Level Indianapolis Center
Thu 08:53:48 AM 39.9928 -82.0686 268° West 415 478 34,000  Level Indianapolis Center
Thu 08:54:50 AM 39.9894 -82.2194 268° West 414 476 34,000  Level Indianapolis Center
Thu 08:55:52 AM 39.9858 -82.3717 268° West 416 479 34,000  Level Indianapolis Center
Thu 08:56:53 AM 39.9811 -82.5228 268° West 415 478 34,000  Level Indianapolis Center
Thu 08:57:55 AM 39.9767 -82.6744 268° West 415 478 34,000  Level Indianapolis Center
Thu 08:58:57 AM 39.9714 -82.8508 268° West 415 478 34,000  Level Indianapolis Center
Thu 08:59:59 AM 39.9667 -83.0028 268° West 417 480 34,000  Level Indianapolis Center
Thu 09:01:00 AM 39.9639 -83.1531 269° West 413 475 34,000  Level Indianapolis Center
Thu 09:02:02 AM 39.9597 -83.3042 268° West 416 479 34,000  Level Indianapolis Center
Thu 09:03:04 AM 39.9553 -83.4542 268° West 417 480 34,000  Level Indianapolis Center
Thu 09:04:06 AM 39.9478 -83.6278 267° West 418 481 34,000  Level Indianapolis Center
Thu 09:05:08 AM 39.9422 -83.7783 267° West 417 480 34,000  Level Indianapolis Center
Thu 09:06:09 AM 39.9367 -83.9292 267° West 415 478 34,000  Level Indianapolis Center
Thu 09:07:11 AM 39.9303 -84.0819 267° West 419 482 34,000  Level Indianapolis Center
Thu 09:08:13 AM 39.9236 -84.2336 267° West 418 481 34,000  Level Indianapolis Center
Thu 09:09:15 AM 39.9178 -84.3858 267° West 418 481 34,000  Level Indianapolis Center
Thu 09:10:17 AM 39.9108 -84.5394 267° West 420 483 34,000  Level Indianapolis Center
Thu 09:11:19 AM 39.9025 -84.6928 266° West 422 486 34,000  Level Indianapolis Center
Thu 09:12:20 AM 39.8950 -84.8708 267° West 420 483 34,000  Level Indianapolis Center
Thu 09:13:22 AM 39.8883 -85.0222 267° West 420 483 34,000  Level Indianapolis Center
Thu 09:14:24 AM 39.8800 -85.1744 266° West 422 486 34,000  Level Indianapolis Center
Thu 09:15:26 AM 39.8722 -85.3258 266° West 422 486 34,000  Level Indianapolis Center
Thu 09:16:28 AM 39.8642 -85.4772 266° West 422 486 34,000  Level Indianapolis Center
Thu 09:17:30 AM 39.8575 -85.6289 267° West 422 486 34,000  Level Indianapolis Center
Thu 09:18:32 AM 39.8467 -85.8089 266° West 419 482 34,000  Level Indianapolis Center
Thu 09:19:34 AM 39.8386 -85.9594 266° West 420 483 34,000  Level Indianapolis Center
Thu 09:20:36 AM 39.8306 -86.1089 266° West 419 482 34,000  Level Indianapolis Center
Thu 09:21:38 AM 39.8192 -86.2783 265° West 420 483 34,000  Level Indianapolis Center
Thu 09:22:40 AM 39.7994 -86.4294 260° West 422 486 34,000  Level Indianapolis Center
Thu 09:23:42 AM 39.7647 -86.5708 252° West 419 482 34,000  Level Indianapolis Center
Thu 09:24:44 AM 39.7300 -86.7133 252° West 417 480 34,000  Level Indianapolis Center
Thu 09:25:46 AM 39.6942 -86.8556 252° West 418 481 34,000  Level Indianapolis Center
Thu 09:26:48 AM 39.6589 -86.9972 252° West 415 478 34,000  Level Indianapolis Center
Thu 09:27:50 AM 39.6231 -87.1722 255° West 420 483 34,000 -484 Level Indianapolis Center
Thu 09:28:52 AM 39.6064 -87.3219 262° West 420 483 33,000 -1,210 Descending Indianapolis Center
Thu 09:29:54 AM 39.5747 -87.4678 254° West 423 487 31,500 -1,403 Descending Indianapolis Center
Thu 09:30:56 AM 39.5294 -87.6081 247° West 425 489 30,100 -726 Descending Indianapolis Center
Thu 09:31:58 AM 39.4981 -87.7456 254° West 405 466 30,000 -48 Descending Indianapolis Center
Thu 09:33:00 AM 39.4761 -87.9164 261° West 402 463 30,000  Level Indianapolis Center
Thu 09:33:52 AM 39.4603 -88.0411 261° West 402 463 30,000 -478 Level Kansas City Center
Thu 09:34:53 AM 39.4431 -88.1864 261° West 405 466 29,100 -1,317 Descending Kansas City Center
Thu 09:35:55 AM 39.4256 -88.3322 261° West 408 470 27,300 -1,756 Descending Kansas City Center
Thu 09:36:56 AM 39.3867 -88.4628 249° West 394 453 25,500 -1,805 Descending Kansas City Center
Thu 09:37:58 AM 39.3444 -88.5883 247° West 389 448 23,600 -1,220 Descending Kansas City Center
Thu 09:38:59 AM 39.3133 -88.7169 253° West 382 440 23,000 -293 Descending Kansas City Center
Thu 09:40:01 AM 39.3011 -88.8486 263° West 375 432 23,000  Level Kansas City Center
Thu 09:41:02 AM 39.2836 -88.9758 260° West 368 423 23,000 -683 Level Kansas City Center
Thu 09:42:04 AM 39.2700 -89.1039 262° West 362 417 21,600 -2,098 Descending Kansas City Center
Thu 09:43:05 AM 39.2169 -89.2422 244° Southwest 365 420 18,700 -2,537 Descending Kansas City Center
Thu 09:44:07 AM 39.1581 -89.3389 232° Southwest 350 403 16,400 -2,439 Descending Kansas City Center
Thu 09:45:08 AM 39.0944 -89.4378 230° Southwest 337 388 13,700 -2,537 Descending Kansas City Center
Thu 09:46:10 AM 39.0353 -89.5244 229° Southwest 326 375 11,200 -1,317 Descending Kansas City Center
Thu 09:47:11 AM 38.9753 -89.5944 222° Southwest 293 337 11,000 -927 Descending Kansas City Center
Thu 09:48:13 AM 38.9139 -89.6692 223° Southwest 284 327 9,300 -1,561 Descending Kansas City Center
Thu 09:49:14 AM 38.8658 -89.7256 222° Southwest 277 319 7,800 -1,122 Descending Kansas City Center
Thu 09:50:16 AM 38.8125 -89.7900 223° Southwest 268 308 7,000 -774 Descending Kansas City Center
Thu 09:51:18 AM 38.7489 -89.8669 223° Southwest 264 304 6,200 -1,220 Descending Kansas City Center
Thu 09:52:19 AM 38.6994 -89.9339 227° Southwest 261 300 4,500 -1,317 Descending Kansas City Center
Thu 09:53:21 AM 38.6561 -90.0039 232° Southwest 256 295 3,500 -488 Descending Kansas City Center
Thu 09:54:22 AM 38.6419 -90.0806 257° West 244 281 3,500  Level Kansas City Center

Login

Don't have an account? Register now (free) for customized features, flight alerts, and more!